Terminal Aerodrome Forecast
Issued by NWS Sioux Falls, SD

Home | Current Version | Previous Version | Text Only | Print | Product List | Glossary Off
Versions: 1 2 3 4 5 6 7 8 9 10 11 12 13 14 15 16 17 18 19 20

000
FTUS43 KFSD 291932 AAA
TAFFSD
TAF AMD
KFSD 291932Z 2920/3018 32012KT 6SM FU SCT050
     FM300030 30004KT 6SM FU SCT050
     FM300900 36004KT P6SM BKN120
     FM301500 08005KT P6SM BKN120=

USA.gov is the U.S. government's official web portal to all federal, state and local government web resources and services.